createdAt,value
2017-07-08T11:17:54.750Z,35.10
2017-07-08T11:20:22.298Z,35.10
2017-07-08T11:22:49.817Z,34.50
2017-07-08T11:25:17.338Z,33.90
2017-07-08T11:27:44.882Z,33.60
2017-07-08T11:30:12.411Z,33.70
2017-07-08T11:32:40.715Z,32.80
2017-07-08T11:35:08.228Z,32.80
2017-07-08T11:37:35.769Z,32.50
2017-07-08T11:40:03.288Z,32.20
2017-07-08T11:42:30.819Z,32.30
2017-07-08T11:44:59.116Z,32.90
2017-07-08T11:47:26.654Z,32.90
2017-07-08T11:49:54.974Z,34.50
2017-07-08T11:52:22.500Z,34.50
2017-07-08T11:54:50.798Z,35.50
2017-07-08T11:57:18.326Z,35.50
2017-07-08T11:59:46.635Z,36.50
2017-07-08T12:02:14.163Z,36.40
2017-07-08T12:04:42.473Z,36.00
2017-07-08T12:07:09.995Z,35.90
2017-07-08T12:09:37.523Z,35.30
2017-07-08T12:12:05.064Z,35.10
2017-07-08T12:14:32.590Z,35.20
2017-07-08T12:17:00.895Z,35.00
2017-07-08T12:19:28.422Z,35.00
2017-07-08T12:21:56.739Z,35.10
2017-07-08T12:24:24.280Z,35.10
2017-07-08T12:26:51.841Z,34.70
2017-07-08T12:29:19.362Z,34.30
2017-07-08T12:31:47.638Z,34.70
2017-07-08T12:34:15.198Z,34.70
2017-07-08T12:36:42.723Z,34.80
2017-07-08T12:39:10.263Z,35.10
2017-07-08T12:41:37.778Z,35.30
2017-07-08T12:44:07.009Z,34.90
2017-07-08T12:46:34.538Z,34.90
2017-07-08T12:49:02.952Z,33.30
2017-07-08T12:51:30.489Z,33.30
2017-07-08T12:53:58.015Z,32.80
2017-07-08T12:56:25.557Z,32.60
2017-07-08T12:58:53.355Z,32.40
2017-07-08T13:01:21.668Z,32.30
2017-07-08T13:03:49.198Z,32.30
2017-07-08T13:06:16.750Z,31.70
2017-07-08T13:08:44.277Z,31.90
2017-07-08T13:11:11.798Z,32.20
2017-07-08T13:13:39.333Z,31.80
2017-07-08T13:16:07.644Z,31.40
2017-07-08T13:18:35.177Z,31.40
2017-07-08T13:21:02.765Z,32.00
2017-07-08T13:23:30.310Z,32.60
2017-07-08T13:25:57.904Z,32.70
2017-07-08T13:28:25.412Z,33.00
2017-07-08T13:30:52.971Z,33.40
2017-07-08T13:33:20.515Z,33.80
2017-07-08T13:35:48.818Z,34.10
2017-07-08T13:38:16.349Z,34.00
2017-07-08T13:40:44.656Z,33.80
2017-07-08T13:43:12.165Z,33.70
2017-07-08T13:45:39.702Z,33.40
2017-07-08T13:48:07.237Z,32.90
2017-07-08T13:50:34.761Z,32.10
2017-07-08T13:53:03.114Z,31.50
2017-07-08T13:55:30.624Z,31.40
2017-07-08T13:57:58.158Z,31.50
2017-07-08T14:00:25.672Z,32.00
2017-07-08T14:02:53.207Z,32.40
2017-07-08T14:05:20.725Z,32.40
2017-07-08T14:07:48.261Z,32.20
2017-07-08T14:10:15.835Z,31.80
2017-07-08T14:12:43.350Z,32.00
2017-07-08T14:15:10.909Z,33.00
2017-07-08T14:17:38.448Z,34.00
2017-07-08T14:20:05.959Z,34.30
2017-07-08T14:22:33.494Z,34.00
2017-07-08T14:25:01.008Z,33.50
2017-07-08T14:27:29.315Z,31.50
2017-07-08T14:29:56.862Z,31.50
2017-07-08T14:32:24.386Z,30.70
2017-07-08T14:34:51.914Z,30.10
2017-07-08T14:37:19.434Z,29.80
2017-07-08T14:39:46.979Z,29.60
2017-07-08T14:42:14.510Z,29.20
2017-07-08T14:44:42.046Z,29.40
2017-07-08T14:47:09.607Z,29.60
2017-07-08T14:49:37.132Z,29.20
2017-07-08T14:52:04.678Z,29.00
2017-07-08T14:54:32.202Z,29.30
2017-07-08T14:56:59.786Z,30.10
2017-07-08T14:59:28.077Z,31.30
2017-07-08T15:01:55.613Z,31.30
2017-07-08T15:04:23.893Z,31.60
2017-07-08T15:06:52.201Z,31.00
2017-07-08T15:09:19.714Z,31.00
2017-07-08T15:11:47.253Z,31.10
2017-07-08T15:14:14.763Z,31.10
2017-07-08T15:16:42.285Z,30.90
2017-07-08T15:19:09.832Z,30.60
2017-07-08T15:21:37.355Z,30.00
2017-07-08T15:24:04.895Z,29.20
2017-07-08T15:26:32.413Z,28.60
2017-07-08T15:28:59.950Z,28.30
2017-07-08T15:31:27.656Z,28.10
2017-07-08T15:33:55.345Z,27.90
2017-07-08T15:36:22.954Z,27.80
2017-07-08T15:38:52.038Z,27.80
2017-07-08T15:41:19.553Z,27.70
2017-07-08T15:43:47.082Z,27.70
2017-07-08T15:46:14.621Z,27.60
2017-07-08T15:48:42.130Z,27.50
2017-07-08T15:51:12.906Z,27.50
2017-07-08T15:53:40.419Z,27.40
2017-07-08T15:56:07.947Z,27.20
2017-07-08T15:58:35.495Z,27.10
2017-07-08T16:01:03.010Z,27.10
2017-07-08T16:03:30.544Z,27.10
2017-07-08T16:05:58.826Z,27.20
2017-07-08T16:08:26.366Z,27.10
2017-07-08T16:10:54.678Z,27.20
2017-07-08T16:13:22.222Z,27.20
2017-07-08T16:15:49.744Z,27.20
2017-07-08T16:18:17.266Z,27.40
2017-07-08T16:20:44.816Z,27.60
2017-07-08T16:23:12.332Z,28.00
2017-07-08T16:25:39.860Z,28.70
2017-07-08T16:28:07.387Z,29.10
2017-07-08T16:30:34.926Z,29.60
2017-07-08T16:33:02.456Z,30.10
2017-07-08T16:35:30.000Z,30.00
2017-07-08T16:37:57.525Z,30.10
2017-07-08T16:40:25.050Z,30.70
2017-07-08T16:42:53.359Z,31.10
2017-07-08T16:45:20.883Z,31.10
2017-07-08T16:47:49.189Z,30.70
2017-07-08T16:50:16.708Z,30.80
2017-07-08T16:52:44.242Z,30.20
2017-07-08T16:55:11.769Z,29.80
2017-07-08T16:57:39.323Z,29.80
2017-07-08T17:00:06.844Z,29.80
2017-07-08T17:02:35.129Z,30.00
2017-07-08T17:05:03.420Z,30.00
2017-07-08T17:07:30.942Z,30.00
2017-07-08T17:09:58.477Z,29.90
2017-07-08T17:12:26.000Z,29.80
2017-07-08T17:14:53.533Z,29.60
2017-07-08T17:17:21.828Z,29.30
2017-07-08T17:19:49.418Z,29.30
2017-07-08T17:22:16.929Z,29.00
2017-07-08T17:24:45.209Z,28.90
2017-07-08T17:27:13.519Z,28.70
2017-07-08T17:29:41.030Z,28.70
2017-07-08T17:32:08.573Z,28.70
2017-07-08T17:34:36.087Z,28.50
2017-07-08T17:37:03.627Z,28.40
2017-07-08T17:39:31.919Z,28.20
2017-07-08T17:41:59.461Z,28.10
2017-07-08T17:44:27.061Z,28.10
2017-07-08T17:46:55.373Z,28.10
2017-07-08T17:49:22.908Z,28.00
2017-07-08T17:51:50.420Z,28.10
2017-07-08T17:54:18.731Z,27.90
2017-07-08T17:56:46.255Z,27.90
2017-07-08T17:59:14.553Z,27.60
2017-07-08T18:01:42.080Z,27.60
2017-07-08T18:04:10.414Z,27.10
2017-07-08T18:06:37.946Z,27.10
2017-07-08T18:09:05.519Z,26.80
2017-07-08T18:11:33.048Z,26.50
2017-07-08T18:14:00.563Z,26.20
2017-07-08T18:16:28.109Z,25.90
2017-07-08T18:18:55.623Z,25.60
2017-07-08T18:21:23.213Z,25.40
2017-07-08T18:23:50.729Z,25.30
2017-07-08T18:26:19.057Z,25.10
2017-07-08T18:28:46.571Z,25.10
2017-07-08T18:31:14.100Z,25.00
2017-07-08T18:33:41.650Z,24.80
2017-07-08T18:36:09.174Z,24.70
2017-07-08T18:38:36.714Z,24.60
2017-07-08T18:41:04.797Z,24.50
2017-07-08T18:43:33.172Z,24.30
2017-07-08T18:46:00.689Z,24.30
2017-07-08T18:48:28.233Z,24.20
2017-07-08T18:50:55.754Z,24.10
2017-07-08T18:53:23.272Z,24.00
2017-07-08T18:55:50.809Z,24.00
2017-07-08T18:58:18.350Z,23.90
2017-07-08T19:00:45.895Z,23.90
2017-07-08T19:03:13.413Z,23.80
2017-07-08T19:05:41.714Z,23.60
2017-07-08T19:08:09.233Z,23.60
2017-07-08T19:10:36.767Z,23.50
2017-07-08T19:13:04.356Z,23.40
2017-07-08T19:15:31.834Z,23.30
2017-07-08T19:17:59.395Z,23.20
2017-07-08T19:20:27.684Z,23.10
2017-07-08T19:22:55.221Z,23.10
2017-07-08T19:25:23.509Z,23.10
2017-07-08T19:27:51.041Z,23.10
2017-07-08T19:30:18.567Z,23.10
2017-07-08T19:32:46.105Z,23.10
2017-07-08T19:35:13.637Z,23.10
2017-07-08T19:37:41.916Z,23.00
2017-07-08T19:40:09.477Z,23.00
2017-07-08T19:42:38.753Z,22.90
2017-07-08T19:45:06.290Z,22.90
2017-07-08T19:47:33.830Z,22.80
2017-07-08T19:50:01.382Z,22.80
2017-07-08T19:52:28.901Z,22.60
2017-07-08T19:54:57.219Z,22.50
2017-07-08T19:57:24.745Z,22.50
2017-07-08T19:59:53.048Z,22.40
2017-07-08T20:02:20.588Z,22.40
2017-07-08T20:04:48.105Z,22.20
2017-07-08T20:07:15.646Z,22.20
2017-07-08T20:09:43.167Z,22.10
2017-07-08T20:12:10.712Z,22.00
2017-07-08T20:14:38.997Z,21.90
2017-07-08T20:17:06.553Z,21.90
2017-07-08T20:19:34.068Z,21.90
2017-07-08T20:22:01.594Z,22.00
2017-07-08T20:24:29.142Z,22.00
2017-07-08T20:26:56.672Z,22.10
2017-07-08T20:29:24.986Z,22.30
2017-07-08T20:31:52.504Z,22.30
2017-07-08T20:34:20.823Z,22.40
2017-07-08T20:36:48.341Z,22.40
2017-07-08T20:39:15.909Z,22.50
2017-07-08T20:41:44.189Z,22.50
2017-07-08T20:44:12.469Z,22.50
2017-07-08T20:46:40.010Z,22.50
2017-07-08T20:49:08.325Z,22.50
2017-07-08T20:51:35.866Z,22.50
2017-07-08T20:54:03.381Z,22.50
2017-07-08T20:56:30.927Z,22.40
2017-07-08T20:58:58.449Z,22.40
2017-07-08T21:01:25.977Z,22.30
2017-07-08T21:03:54.263Z,22.20
2017-07-08T21:06:22.581Z,22.20
2017-07-08T21:08:50.099Z,22.20
2017-07-08T21:11:17.626Z,22.30
2017-07-08T21:13:45.162Z,22.20
2017-07-08T21:16:12.696Z,22.20
2017-07-08T21:18:40.245Z,22.10
2017-07-08T21:21:07.773Z,22.10
2017-07-08T21:23:35.302Z,22.00
2017-07-08T21:26:02.825Z,22.00
2017-07-08T21:28:30.366Z,22.00
2017-07-08T21:30:58.658Z,21.90
2017-07-08T21:33:26.226Z,21.90
2017-07-08T21:35:53.749Z,21.80
2017-07-08T21:38:21.269Z,21.80
2017-07-08T21:40:48.807Z,21.60
2017-07-08T21:43:16.332Z,21.50
2017-07-08T21:45:44.628Z,21.30
2017-07-08T21:48:12.147Z,21.30
2017-07-08T21:50:39.687Z,21.20
2017-07-08T21:53:07.213Z,21.10
2017-07-08T21:55:34.757Z,20.90
2017-07-08T21:58:02.273Z,20.80
2017-07-08T22:00:29.820Z,20.80
2017-07-08T22:02:57.363Z,20.70
2017-07-08T22:05:24.887Z,20.60
2017-07-08T22:07:53.195Z,20.60
2017-07-08T22:10:20.723Z,20.60
2017-07-08T22:12:49.034Z,20.50
2017-07-08T22:15:16.562Z,20.40
2017-07-08T22:17:44.096Z,20.40
2017-07-08T22:20:12.401Z,20.30
2017-07-08T22:22:39.938Z,20.30
2017-07-08T22:25:08.607Z,20.20
2017-07-08T22:27:36.193Z,20.20
2017-07-08T22:30:04.547Z,20.20
2017-07-08T22:32:32.148Z,20.20
2017-07-08T22:34:59.745Z,20.30
2017-07-08T22:37:27.318Z,20.30
2017-07-08T22:39:54.913Z,20.40
2017-07-08T22:42:22.480Z,20.40
2017-07-08T22:44:50.054Z,20.50
2017-07-08T22:47:17.612Z,20.50
2017-07-08T22:49:45.194Z,20.60
2017-07-08T22:52:12.768Z,20.60
2017-07-08T22:54:40.360Z,20.50
2017-07-08T22:57:08.792Z,20.10
2017-07-08T22:59:36.350Z,20.10
2017-07-08T23:02:03.915Z,19.90
2017-07-08T23:04:31.471Z,19.70
2017-07-08T23:06:59.048Z,19.60
2017-07-08T23:09:26.604Z,19.40
2017-07-08T23:11:54.180Z,19.30
2017-07-08T23:14:21.741Z,19.20
2017-07-08T23:16:49.323Z,19.20
2017-07-08T23:19:17.659Z,19.00
2017-07-08T23:21:45.256Z,19.00
2017-07-08T23:24:13.592Z,18.90
2017-07-08T23:26:41.163Z,18.90
2017-07-08T23:29:08.802Z,18.90
2017-07-08T23:31:36.355Z,18.90
2017-07-08T23:34:03.959Z,18.90
2017-07-08T23:36:31.532Z,18.90
2017-07-08T23:38:59.894Z,18.80
2017-07-08T23:41:27.459Z,18.70
2017-07-08T23:43:55.035Z,18.80
2017-07-08T23:46:22.598Z,18.90
2017-07-08T23:48:50.965Z,18.90
2017-07-08T23:51:19.400Z,18.80
2017-07-08T23:53:46.964Z,18.80
2017-07-08T23:56:14.543Z,19.00
2017-07-08T23:58:42.104Z,19.00
